Lindong, China
Current Conditions -  °F | °C
As of 10:00 PM on Sunday 25 Jan 2015 (Local Time) from ZYTX Reporting Station
Smoke Smoke  
Wind Chill: 32°   Ceiling: 3300
Heat Index: 32°   Visibility: 1.8mi
Dew Point: 27°   Wind: 2mph
Humidity: 80%   Direction: NA
Pressure: 30.21"   Gusts: NA
Location:  43.98°N, 119.4°E
Report Text: ZYTX 251400Z VRB01MPS 3000 FU OVC033 M00/M03 Q1023 NOSIG
Loading
Personal Weather Stations






























Interactive Weather Map New forecast layout! Learn more

10-Day Weather Forecast

Advertisements
Track Severe Weather on mobile